createdAt,value
2022-11-19T00:01:23.873Z,1.83
2022-11-19T00:03:52.940Z,1.45
2022-11-19T00:06:22.812Z,1.60
2022-11-19T00:08:49.981Z,1.42
2022-11-19T00:11:42.398Z,1.60
2022-11-19T00:14:12.739Z,1.50
2022-11-19T00:16:40.147Z,1.60
2022-11-19T00:19:07.668Z,1.70
2022-11-19T00:21:34.608Z,1.90
2022-11-19T00:24:01.372Z,1.55
2022-11-19T00:26:28.396Z,1.40
2022-11-19T00:28:55.577Z,1.63
2022-11-19T00:31:22.712Z,1.33
2022-11-19T00:33:50.877Z,1.50
2022-11-19T00:36:18.204Z,1.50
2022-11-19T00:38:45.181Z,1.30
2022-11-19T00:41:12.489Z,1.30
2022-11-19T00:43:48.870Z,1.45
2022-11-19T00:46:29.561Z,1.33
2022-11-19T00:48:58.285Z,1.27
2022-11-19T00:51:27.947Z,1.33
2022-11-19T00:53:54.912Z,1.20
2022-11-19T00:56:23.990Z,1.45
2022-11-19T00:58:51.115Z,1.90
2022-11-19T01:01:19.928Z,1.80
2022-11-19T01:03:47.533Z,1.38
2022-11-19T01:06:19.082Z,1.50
2022-11-19T01:08:48.038Z,1.83
2022-11-19T01:11:24.491Z,1.50
2022-11-19T01:13:51.836Z,1.40
2022-11-19T01:16:24.931Z,1.40
2022-11-19T01:18:52.273Z,1.13
2022-11-19T01:21:21.129Z,1.25
2022-11-19T01:23:48.940Z,1.40
2022-11-19T01:26:16.638Z,1.38
2022-11-19T01:28:44.577Z,1.48
2022-11-19T01:31:14.413Z,1.27
2022-11-19T01:33:41.942Z,1.30
2022-11-19T01:36:12.709Z,1.42
2022-11-19T01:38:39.953Z,1.48
2022-11-19T01:41:07.921Z,1.70
2022-11-19T01:43:48.809Z,1.27
2022-11-19T01:46:18.466Z,1.52
2022-11-19T01:48:57.974Z,1.33
2022-11-19T01:51:35.390Z,1.17
2022-11-19T01:54:08.837Z,1.40
2022-11-19T01:56:36.549Z,1.08
2022-11-19T01:59:09.753Z,1.05
2022-11-19T02:01:36.862Z,1.55
2022-11-19T02:04:06.153Z,1.55
2022-11-19T02:06:34.853Z,1.40
2022-11-19T02:09:01.743Z,1.25
2022-11-19T02:11:50.023Z,1.58
2022-11-19T02:14:55.168Z,1.08
2022-11-19T02:17:22.238Z,1.40
2022-11-19T02:19:55.161Z,1.50
2022-11-19T02:22:43.864Z,1.13
2022-11-19T02:25:39.034Z,1.10
2022-11-19T02:28:15.089Z,1.17
2022-11-19T02:30:51.394Z,1.10
2022-11-19T02:33:30.326Z,1.30
2022-11-19T02:36:07.829Z,1.08
2022-11-19T02:38:53.321Z,1.30
2022-11-19T02:41:35.937Z,0.95
2022-11-19T02:44:40.461Z,1.17
2022-11-19T02:47:15.544Z,0.90
2022-11-19T02:49:47.358Z,1.40
2022-11-19T02:52:16.419Z,1.05
2022-11-19T02:54:43.583Z,1.25
2022-11-19T02:57:12.440Z,1.10
2022-11-19T03:00:03.597Z,1.13
2022-11-19T03:02:56.029Z,1.05
2022-11-19T03:05:28.638Z,1.38
2022-11-19T03:07:55.780Z,1.13
2022-11-19T03:10:25.742Z,1.50
2022-11-19T03:12:58.924Z,1.42
2022-11-19T03:16:05.050Z,1.23
2022-11-19T03:18:34.614Z,1.30
2022-11-19T03:21:17.474Z,1.60
2022-11-19T03:23:51.292Z,1.40
2022-11-19T03:26:35.199Z,1.27
2022-11-19T03:29:10.542Z,1.60
2022-11-19T03:31:40.942Z,1.50
2022-11-19T03:34:18.153Z,1.35
2022-11-19T03:36:48.323Z,1.40
2022-11-19T03:39:20.217Z,1.42
2022-11-19T03:41:49.830Z,1.48
2022-11-19T03:44:26.349Z,1.40
2022-11-19T03:47:01.457Z,1.35
2022-11-19T03:49:33.719Z,1.95
2022-11-19T03:52:10.553Z,1.60
2022-11-19T03:54:39.794Z,1.58
2022-11-19T03:57:08.529Z,1.70
2022-11-19T03:59:35.613Z,1.50
2022-11-19T04:02:06.694Z,1.50
2022-11-19T04:04:37.185Z,1.90
2022-11-19T04:07:12.400Z,1.48
2022-11-19T04:09:40.866Z,1.30
2022-11-19T04:12:13.916Z,1.35
2022-11-19T04:14:40.741Z,1.13
2022-11-19T04:17:07.625Z,1.10
2022-11-19T04:19:34.606Z,1.13
2022-11-19T04:22:01.525Z,1.30
2022-11-19T04:24:28.505Z,1.50
2022-11-19T04:26:55.413Z,0.90
2022-11-19T04:29:22.428Z,1.30
2022-11-19T04:31:49.404Z,1.40
2022-11-19T04:34:16.313Z,1.00
2022-11-19T04:36:43.290Z,1.33
2022-11-19T04:39:12.516Z,1.05
2022-11-19T04:41:40.830Z,1.05
2022-11-19T04:44:07.836Z,1.42
2022-11-19T04:46:34.843Z,1.52
2022-11-19T04:49:02.004Z,1.42
2022-11-19T04:51:28.897Z,1.58
2022-11-19T04:53:56.004Z,1.35
2022-11-19T04:56:22.961Z,1.08
2022-11-19T04:58:49.991Z,1.27
2022-11-19T05:01:16.960Z,1.23
2022-11-19T05:03:43.880Z,1.42
2022-11-19T05:06:10.796Z,1.08
2022-11-19T05:08:37.617Z,1.33
2022-11-19T05:11:04.752Z,1.55
2022-11-19T05:13:31.560Z,1.40
2022-11-19T05:15:58.662Z,1.30
2022-11-19T05:18:25.680Z,1.10
2022-11-19T05:20:52.624Z,1.60
2022-11-19T05:23:19.601Z,1.27
2022-11-19T05:25:47.085Z,1.30
2022-11-19T05:28:14.473Z,1.35
2022-11-19T05:30:41.711Z,1.50
2022-11-19T05:33:08.972Z,1.75
2022-11-19T05:35:35.768Z,1.45
2022-11-19T05:38:02.765Z,1.20
2022-11-19T05:40:29.965Z,1.38
2022-11-19T05:42:56.876Z,1.20
2022-11-19T05:45:23.817Z,1.40
2022-11-19T05:47:55.020Z,1.45
2022-11-19T05:50:21.995Z,1.25
2022-11-19T05:52:48.859Z,1.52
2022-11-19T05:55:17.080Z,1.33
2022-11-19T05:57:44.207Z,1.55
2022-11-19T06:00:11.829Z,1.52
2022-11-19T06:02:38.899Z,1.33
2022-11-19T06:05:06.218Z,1.63
2022-11-19T06:07:33.169Z,1.40
2022-11-19T06:10:00.109Z,1.20
2022-11-19T06:12:26.962Z,1.40
2022-11-19T06:14:53.902Z,1.15
2022-11-19T06:17:21.099Z,1.27
2022-11-19T06:19:47.966Z,1.25
2022-11-19T06:22:14.911Z,1.60
2022-11-19T06:24:41.896Z,1.33
2022-11-19T06:27:08.805Z,1.40
2022-11-19T06:29:35.804Z,1.10
2022-11-19T06:32:02.602Z,1.48
2022-11-19T06:34:29.425Z,1.75
2022-11-19T06:36:56.328Z,1.70
2022-11-19T06:39:23.318Z,1.40
2022-11-19T06:41:50.257Z,1.52
2022-11-19T06:44:17.461Z,1.65
2022-11-19T06:46:44.098Z,1.25
2022-11-19T06:49:18.462Z,1.73
2022-11-19T06:51:47.001Z,1.90
2022-11-19T06:54:13.892Z,1.75
2022-11-19T06:56:40.610Z,1.50
2022-11-19T06:59:07.577Z,1.73
2022-11-19T07:01:34.603Z,1.40
2022-11-19T07:04:01.374Z,1.75
2022-11-19T07:06:28.233Z,1.63
2022-11-19T07:08:55.125Z,1.48
2022-11-19T07:11:28.056Z,1.48
2022-11-19T07:13:58.803Z,2.25
2022-11-19T07:16:27.778Z,1.48
2022-11-19T07:18:54.548Z,1.50
2022-11-19T07:21:27.512Z,1.35
2022-11-19T07:23:58.001Z,1.40
2022-11-19T07:26:26.044Z,1.50
2022-11-19T07:28:53.061Z,1.83
2022-11-19T07:31:19.900Z,1.42
2022-11-19T07:33:46.708Z,1.55
2022-11-19T07:36:18.104Z,1.10
2022-11-19T07:38:45.851Z,1.17
2022-11-19T07:41:31.966Z,1.30
2022-11-19T07:43:58.703Z,1.98
2022-11-19T07:46:25.602Z,1.60
2022-11-19T07:48:54.886Z,1.33
2022-11-19T07:51:22.788Z,1.20
2022-11-19T07:53:50.656Z,1.48
2022-11-19T07:56:18.554Z,1.23
2022-11-19T07:58:45.549Z,2.47
2022-11-19T08:01:18.647Z,1.30
2022-11-19T08:03:49.635Z,1.73
2022-11-19T08:06:21.244Z,1.35
2022-11-19T08:08:48.537Z,1.48
2022-11-19T08:11:16.654Z,1.20
2022-11-19T08:13:44.076Z,1.48
2022-11-19T08:16:13.404Z,1.95
2022-11-19T08:18:40.397Z,1.17
2022-11-19T08:21:10.602Z,1.38
2022-11-19T08:23:40.138Z,1.40
2022-11-19T08:26:08.161Z,1.30
2022-11-19T08:28:40.629Z,1.55
2022-11-19T08:31:08.953Z,1.45
2022-11-19T08:33:46.026Z,1.17
2022-11-19T08:36:13.095Z,1.13
2022-11-19T08:38:42.216Z,0.95
2022-11-19T08:41:28.177Z,1.20
2022-11-19T08:44:02.505Z,1.00
2022-11-19T08:46:35.559Z,1.05
2022-11-19T08:49:04.677Z,1.10
2022-11-19T08:51:37.350Z,1.05
2022-11-19T08:54:07.694Z,0.93
2022-11-19T08:56:34.557Z,1.13
2022-11-19T08:59:03.012Z,1.00
2022-11-19T09:01:30.232Z,0.95
2022-11-19T09:03:57.269Z,1.00
2022-11-19T09:06:24.485Z,1.13
2022-11-19T09:08:51.398Z,1.60
2022-11-19T09:11:20.087Z,1.13
2022-11-19T09:13:47.085Z,2.40
2022-11-19T09:16:14.033Z,1.73
2022-11-19T09:18:42.517Z,1.05
2022-11-19T09:21:11.489Z,1.45
2022-11-19T09:23:39.904Z,1.23
2022-11-19T09:26:09.645Z,1.30
2022-11-19T09:28:36.652Z,1.45
2022-11-19T09:31:15.569Z,1.55
2022-11-19T09:33:45.897Z,1.20
2022-11-19T09:36:13.450Z,1.58
2022-11-19T09:38:42.965Z,1.17
2022-11-19T09:41:21.274Z,0.95
2022-11-19T09:44:08.796Z,1.45
2022-11-19T09:46:38.501Z,1.23
2022-11-19T09:49:16.854Z,1.05
2022-11-19T09:51:51.611Z,1.70
2022-11-19T09:54:22.027Z,1.50
2022-11-19T09:56:53.993Z,1.60
2022-11-19T09:59:33.658Z,1.20
2022-11-19T10:02:21.352Z,1.42
2022-11-19T10:04:50.901Z,1.70
2022-11-19T10:07:42.283Z,1.25
2022-11-19T10:10:28.600Z,1.83
2022-11-19T10:13:17.922Z,2.45
2022-11-19T10:15:51.825Z,1.40
2022-11-19T10:18:35.829Z,1.63
2022-11-19T10:21:10.005Z,1.55
2022-11-19T10:24:04.489Z,1.40
2022-11-19T10:26:37.031Z,1.60
2022-11-19T10:29:12.842Z,1.65
2022-11-19T10:31:45.462Z,1.70
2022-11-19T10:34:18.228Z,1.00
2022-11-19T10:37:09.109Z,1.35
2022-11-19T10:39:40.813Z,1.20
2022-11-19T10:42:25.933Z,1.50
2022-11-19T10:44:58.520Z,1.88
2022-11-19T10:47:41.192Z,1.45
2022-11-19T10:50:16.858Z,1.50
2022-11-19T10:52:48.942Z,1.30
2022-11-19T10:55:39.814Z,1.35
2022-11-19T10:58:15.731Z,1.20
2022-11-19T11:00:43.657Z,1.40
2022-11-19T11:03:22.511Z,1.35
2022-11-19T11:06:07.609Z,2.40
2022-11-19T11:08:50.932Z,0.90
2022-11-19T11:11:47.352Z,1.55
2022-11-19T11:14:34.189Z,1.25
2022-11-19T11:17:02.144Z,1.40
2022-11-19T11:19:29.417Z,1.20
2022-11-19T11:21:58.485Z,1.73
2022-11-19T11:24:35.392Z,1.38
2022-11-19T11:27:33.482Z,1.27
2022-11-19T11:30:12.609Z,1.17
2022-11-19T11:32:40.977Z,1.40
2022-11-19T11:35:29.538Z,1.40
2022-11-19T11:38:16.538Z,1.50
2022-11-19T11:44:03.544Z,1.38
2022-11-19T11:46:59.383Z,1.45
2022-11-19T11:49:48.038Z,1.40
2022-11-19T11:52:38.190Z,1.42
2022-11-19T11:55:22.078Z,1.65
2022-11-19T11:58:03.842Z,1.23
2022-11-19T12:00:43.602Z,1.48
2022-11-19T12:03:21.137Z,1.30
2022-11-19T12:06:15.461Z,1.40
2022-11-19T12:09:08.723Z,1.40
2022-11-19T12:11:55.789Z,1.45
2022-11-19T12:14:31.755Z,1.20
2022-11-19T12:17:32.617Z,1.30
2022-11-19T12:20:32.596Z,1.55
2022-11-19T12:23:20.114Z,2.25
2022-11-19T12:26:01.796Z,1.38
2022-11-19T12:28:50.339Z,1.50
2022-11-19T12:31:29.792Z,1.15
2022-11-19T12:34:14.280Z,1.63
2022-11-19T12:36:50.789Z,1.20
2022-11-19T12:39:54.362Z,2.00
2022-11-19T12:42:27.283Z,1.50
2022-11-19T12:45:07.696Z,1.80
2022-11-19T12:47:46.843Z,2.50
2022-11-19T12:50:26.592Z,3.95
2022-11-19T12:53:19.517Z,3.20
2022-11-19T12:56:04.870Z,2.58
2022-11-19T13:01:24.189Z,2.15
2022-11-19T13:03:53.976Z,1.83
2022-11-19T13:06:49.566Z,2.08
2022-11-19T13:12:10.997Z,1.33
2022-11-19T13:14:41.296Z,1.58
2022-11-19T13:17:31.447Z,1.30
2022-11-19T13:20:04.633Z,1.85
2022-11-19T13:22:43.804Z,3.92
2022-11-19T13:25:30.875Z,2.35
2022-11-19T13:28:01.580Z,1.63
2022-11-19T13:30:32.223Z,1.70
2022-11-19T13:33:25.500Z,1.50
2022-11-19T13:36:07.778Z,1.65
2022-11-19T13:38:55.495Z,1.60
2022-11-19T13:41:30.446Z,1.40
2022-11-19T13:44:16.952Z,1.88
2022-11-19T13:46:52.516Z,1.50
2022-11-19T13:49:32.823Z,2.25
2022-11-19T13:52:13.489Z,1.95
2022-11-19T13:54:41.556Z,2.20
2022-11-19T13:57:22.917Z,2.10
2022-11-19T13:59:50.550Z,3.03
2022-11-19T14:02:41.970Z,1.63
2022-11-19T14:05:26.897Z,1.65
2022-11-19T14:08:01.986Z,2.15
2022-11-19T14:10:42.530Z,1.92
2022-11-19T14:13:27.450Z,2.63
2022-11-19T14:16:12.778Z,2.40
2022-11-19T14:19:06.029Z,2.10
2022-11-19T14:21:54.064Z,2.22
2022-11-19T14:24:42.548Z,1.95
2022-11-19T14:27:29.537Z,1.70
2022-11-19T14:30:08.195Z,2.00
2022-11-19T14:32:51.166Z,2.00
2022-11-19T14:35:23.514Z,2.05
2022-11-19T14:37:54.269Z,1.83
2022-11-19T14:40:28.612Z,2.42
2022-11-19T14:43:20.216Z,1.70
2022-11-19T14:46:05.420Z,1.90
2022-11-19T14:51:10.014Z,1.90
2022-11-19T14:53:47.253Z,2.00
2022-11-19T14:56:16.849Z,2.10
2022-11-19T14:58:58.698Z,1.60
2022-11-19T15:01:25.628Z,1.80
2022-11-19T15:03:57.850Z,1.80
2022-11-19T15:06:26.133Z,1.70
2022-11-19T15:08:57.816Z,2.38
2022-11-19T15:11:44.643Z,1.95
2022-11-19T15:14:29.903Z,1.80
2022-11-19T15:19:41.965Z,1.50
2022-11-19T15:22:23.850Z,1.80
2022-11-19T15:24:56.439Z,2.00
2022-11-19T15:27:39.280Z,1.70
2022-11-19T15:30:20.038Z,2.70
2022-11-19T15:32:49.877Z,2.35
2022-11-19T15:35:54.193Z,1.80
2022-11-19T15:38:23.622Z,2.17
2022-11-19T15:40:55.553Z,1.85
2022-11-19T15:43:22.382Z,1.70
2022-11-19T15:45:55.026Z,2.00
2022-11-19T15:48:35.655Z,1.67
2022-11-19T15:51:03.968Z,2.13
2022-11-19T15:53:31.278Z,1.70
2022-11-19T15:56:01.592Z,1.80
2022-11-19T15:58:41.255Z,2.08
2022-11-19T16:01:17.298Z,2.05
2022-11-19T16:03:45.295Z,1.92
2022-11-19T16:06:20.069Z,1.60
2022-11-19T16:11:58.539Z,1.58
2022-11-19T16:14:46.629Z,1.98
2022-11-19T16:17:41.720Z,1.85
2022-11-19T16:20:10.228Z,1.92
2022-11-19T16:23:07.414Z,1.92
2022-11-19T16:25:40.333Z,3.20
2022-11-19T16:28:15.152Z,4.35
2022-11-19T16:33:15.507Z,6.57
2022-11-19T16:35:42.710Z,3.83
2022-11-19T16:38:16.271Z,4.80
2022-11-19T16:41:03.734Z,3.20
2022-11-19T16:43:32.438Z,2.80
2022-11-19T16:46:00.596Z,2.42
2022-11-19T16:48:42.690Z,2.97
2022-11-19T16:51:51.014Z,3.45
2022-11-19T16:54:48.232Z,2.92
2022-11-19T16:57:19.977Z,2.50
2022-11-19T16:59:52.841Z,4.53
2022-11-19T17:02:22.709Z,3.78
2022-11-19T17:04:55.717Z,2.90
2022-11-19T17:07:29.371Z,3.15
2022-11-19T17:10:08.882Z,5.37
2022-11-19T17:12:37.422Z,2.47
2022-11-19T17:15:25.989Z,5.60
2022-11-19T17:17:53.183Z,3.25
2022-11-19T17:20:32.458Z,2.97
2022-11-19T17:23:01.150Z,2.08
2022-11-19T17:25:28.588Z,2.10
2022-11-19T17:27:58.087Z,2.90
2022-11-19T17:30:27.551Z,3.97
2022-11-19T17:33:01.104Z,3.28
2022-11-19T17:35:39.781Z,4.60
2022-11-19T17:38:27.311Z,2.83
2022-11-19T17:40:58.572Z,2.13
2022-11-19T17:43:53.350Z,2.25
2022-11-19T17:46:21.348Z,2.80
2022-11-19T17:48:50.109Z,2.63
2022-11-19T17:51:22.800Z,3.53
2022-11-19T17:53:54.441Z,3.10
2022-11-19T17:56:27.713Z,4.72
2022-11-19T17:58:55.126Z,5.15
2022-11-19T18:01:22.432Z,3.63
2022-11-19T18:03:49.315Z,4.07
2022-11-19T18:06:17.504Z,2.33
2022-11-19T18:08:44.835Z,3.00
2022-11-19T18:11:13.429Z,2.70
2022-11-19T18:13:41.592Z,3.25
2022-11-19T18:16:28.699Z,2.20
2022-11-19T18:18:55.868Z,3.05
2022-11-19T18:21:23.786Z,2.53
2022-11-19T18:23:52.202Z,2.50
2022-11-19T18:26:23.237Z,3.25
2022-11-19T18:28:50.233Z,3.42
2022-11-19T18:31:22.419Z,3.63
2022-11-19T18:33:49.723Z,3.20
2022-11-19T18:36:17.235Z,3.45
2022-11-19T18:38:44.774Z,3.00
2022-11-19T18:41:12.978Z,3.70
2022-11-19T18:43:58.633Z,2.97
2022-11-19T18:46:26.301Z,3.00
2022-11-19T18:48:53.852Z,3.25
2022-11-19T18:51:21.623Z,3.55
2022-11-19T18:53:48.791Z,2.95
2022-11-19T18:56:16.605Z,3.38
2022-11-19T18:58:43.689Z,2.95
2022-11-19T19:01:11.362Z,3.08
2022-11-19T19:03:38.131Z,3.47
2022-11-19T19:06:07.032Z,3.35
2022-11-19T19:08:35.248Z,3.35
2022-11-19T19:11:24.745Z,3.10
2022-11-19T19:13:51.476Z,3.28
2022-11-19T19:16:18.428Z,3.67
2022-11-19T19:18:45.260Z,3.53
2022-11-19T19:21:16.693Z,3.20
2022-11-19T19:23:43.862Z,3.50
2022-11-19T19:26:13.741Z,3.40
2022-11-19T19:28:40.507Z,3.53
2022-11-19T19:31:07.509Z,3.13
2022-11-19T19:33:34.787Z,3.33
2022-11-19T19:36:05.724Z,3.08
2022-11-19T19:38:33.441Z,3.22
2022-11-19T19:41:08.141Z,3.28
2022-11-19T19:43:35.072Z,2.97
2022-11-19T19:46:13.409Z,3.03
2022-11-19T19:48:40.653Z,3.22
2022-11-19T19:51:07.509Z,2.97
2022-11-19T19:53:35.179Z,3.00
2022-11-19T19:56:07.684Z,3.05
2022-11-19T19:58:35.758Z,2.85
2022-11-19T20:01:06.882Z,2.88
2022-11-19T20:03:35.130Z,3.08
2022-11-19T20:06:07.177Z,3.30
2022-11-19T20:08:38.139Z,3.13
2022-11-19T20:11:08.819Z,2.92
2022-11-19T20:13:36.993Z,3.20
2022-11-19T20:16:19.544Z,3.10
2022-11-19T20:18:47.977Z,2.90
2022-11-19T20:21:17.705Z,3.42
2022-11-19T20:23:44.753Z,3.50
2022-11-19T20:26:17.983Z,3.42
2022-11-19T20:28:45.420Z,3.15
2022-11-19T20:31:18.702Z,3.35
2022-11-19T20:33:48.183Z,3.30
2022-11-19T20:36:15.855Z,3.08
2022-11-19T20:38:48.178Z,2.95
2022-11-19T20:41:35.658Z,2.75
2022-11-19T20:44:22.024Z,3.42
2022-11-19T20:47:00.765Z,3.25
2022-11-19T20:49:43.306Z,4.15
2022-11-19T20:52:11.042Z,3.63
2022-11-19T20:54:38.499Z,3.33
2022-11-19T20:57:05.376Z,3.20
2022-11-19T20:59:32.265Z,3.10
2022-11-19T21:01:59.309Z,3.38
2022-11-19T21:04:28.840Z,3.25
2022-11-19T21:06:57.313Z,3.65
2022-11-19T21:09:24.948Z,2.80
2022-11-19T21:11:53.591Z,3.50
2022-11-19T21:14:20.446Z,3.15
2022-11-19T21:16:50.545Z,3.42
2022-11-19T21:19:17.723Z,3.53
2022-11-19T21:21:45.742Z,3.22
2022-11-19T21:24:12.872Z,3.40
2022-11-19T21:26:40.173Z,3.05
2022-11-19T21:29:07.067Z,3.50
2022-11-19T21:31:39.227Z,3.40
2022-11-19T21:34:23.263Z,3.22
2022-11-19T21:36:50.802Z,3.88
2022-11-19T21:39:18.972Z,3.38
2022-11-19T21:41:46.081Z,3.15
2022-11-19T21:44:18.029Z,3.38
2022-11-19T21:46:49.240Z,3.35
2022-11-19T21:49:30.048Z,3.50
2022-11-19T21:51:57.206Z,3.30
2022-11-19T21:54:23.985Z,3.80
2022-11-19T21:56:50.677Z,3.70
2022-11-19T21:59:17.833Z,3.30
2022-11-19T22:01:44.888Z,3.50
2022-11-19T22:04:16.754Z,3.80
2022-11-19T22:06:43.749Z,3.72
2022-11-19T22:09:10.533Z,3.35
2022-11-19T22:11:37.218Z,3.63
2022-11-19T22:14:06.733Z,3.63
2022-11-19T22:16:37.882Z,3.60
2022-11-19T22:19:05.893Z,3.78
2022-11-19T22:21:33.868Z,4.05
2022-11-19T22:24:00.871Z,3.80
2022-11-19T22:26:27.791Z,3.30
2022-11-19T22:28:55.037Z,4.22
2022-11-19T22:31:22.492Z,4.45
2022-11-19T22:33:51.733Z,3.83
2022-11-19T22:36:20.553Z,4.40
2022-11-19T22:38:47.573Z,4.13
2022-11-19T22:41:17.209Z,4.18
2022-11-19T22:43:44.570Z,3.92
2022-11-19T22:46:12.938Z,4.05
2022-11-19T22:48:40.139Z,4.38
2022-11-19T22:51:09.754Z,4.50
2022-11-19T22:53:37.287Z,4.15
2022-11-19T22:56:05.599Z,3.83
2022-11-19T22:58:33.586Z,4.00
2022-11-19T23:01:00.539Z,4.07
2022-11-19T23:03:27.189Z,4.20
2022-11-19T23:05:55.461Z,4.20
2022-11-19T23:08:23.263Z,4.00
2022-11-19T23:10:57.540Z,4.25
2022-11-19T23:13:33.728Z,3.30
2022-11-19T23:16:01.987Z,4.10
2022-11-19T23:18:30.006Z,3.40
2022-11-19T23:21:02.873Z,3.85
2022-11-19T23:23:29.805Z,3.85
2022-11-19T23:25:57.910Z,3.72
2022-11-19T23:28:26.225Z,3.78
2022-11-19T23:30:53.835Z,3.60
2022-11-19T23:33:21.676Z,3.25
2022-11-19T23:35:48.764Z,3.83
2022-11-19T23:38:15.785Z,3.45
2022-11-19T23:40:42.613Z,3.35
2022-11-19T23:43:10.943Z,3.90
2022-11-19T23:45:37.973Z,3.28
2022-11-19T23:48:05.178Z,3.72
2022-11-19T23:50:32.198Z,3.80
2022-11-19T23:52:59.104Z,2.97
2022-11-19T23:55:26.129Z,3.35
2022-11-19T23:57:53.384Z,3.42
